Time;durP1;ratioP1;P1;durP2;ratioP2;P2;SDS_P1;SDS_P2;PMS_P1;PMS_P2;Temp;Humidity;BMP_temperature;BMP_pressure;BME280_temperature;BME280_humidity;BME280_pressure;Samples;Min_cycle;Max_cycle;Signal;HPM_P1;HPM_P2
2020/12/29 00:00:53;;;;;;;1.05;0.75;;;;;;;17.45;48.88;98052.88;5080207;28;20035;-78
2020/12/29 00:03:21;;;;;;;1.00;0.80;;;;;;;17.41;48.93;98054.78;5114013;28;20110;-77
2020/12/29 00:05:47;;;;;;;1.38;0.75;;;;;;;17.39;49.28;98046.19;5108819;28;20028;-78
2020/12/29 00:08:13;;;;;;;1.30;0.90;;;;;;;17.38;49.08;98054.94;5073758;28;20043;-77
2020/12/29 00:10:39;;;;;;;1.63;1.08;;;;;;;17.35;49.50;98055.06;5076837;28;20368;-77
2020/12/29 00:13:05;;;;;;;1.30;0.90;;;;;;;17.34;48.96;98055.97;5063183;28;20027;-78
2020/12/29 00:15:31;;;;;;;3.10;1.17;;;;;;;17.31;49.01;98053.50;5082835;28;20028;-77
2020/12/29 00:17:56;;;;;;;0.93;0.77;;;;;;;17.30;49.28;98057.03;5079141;28;20096;-78
2020/12/29 00:20:22;;;;;;;1.42;0.95;;;;;;;17.31;49.40;98060.47;5063574;28;20032;-77
2020/12/29 00:22:47;;;;;;;1.52;1.00;;;;;;;17.27;49.06;98056.28;5106129;28;20122;-77
2020/12/29 00:25:15;;;;;;;1.00;0.70;;;;;;;17.28;49.37;98052.78;5085406;28;20097;-78
2020/12/29 00:27:40;;;;;;;1.60;0.93;;;;;;;17.26;49.29;98058.09;5110469;28;20133;-77
2020/12/29 00:30:06;;;;;;;1.15;0.70;;;;;;;17.25;49.08;98061.63;5100025;28;20052;-78
2020/12/29 00:32:31;;;;;;;1.17;0.88;;;;;;;17.26;49.23;98067.69;5085849;28;20044;-78
2020/12/29 00:34:56;;;;;;;0.95;0.63;;;;;;;17.25;49.03;98064.22;5090243;28;20036;-78
2020/12/29 00:37:22;;;;;;;1.38;0.82;;;;;;;17.24;48.94;98059.06;5073353;28;20031;-77
2020/12/29 00:39:47;;;;;;;1.35;1.13;;;;;;;17.24;49.46;98062.53;5062739;28;20123;-78
2020/12/29 00:42:13;;;;;;;1.73;0.90;;;;;;;17.21;49.28;98059.19;5100556;28;20024;-78
2020/12/29 00:44:38;;;;;;;1.27;0.88;;;;;;;17.23;49.18;98073.88;5079696;28;20040;-78
2020/12/29 00:47:04;;;;;;;1.40;0.82;;;;;;;17.22;49.06;98069.56;5087173;28;20024;-78
2020/12/29 00:49:29;;;;;;;1.40;0.88;;;;;;;17.17;49.41;98055.84;5069206;28;20034;-78
2020/12/29 00:51:55;;;;;;;1.08;0.85;;;;;;;17.20;49.11;98063.56;5079139;28;20038;-78
2020/12/29 00:54:21;;;;;;;1.23;0.90;;;;;;;17.21;49.21;98064.41;5071011;28;20035;-78
2020/12/29 00:56:46;;;;;;;1.08;0.70;;;;;;;17.16;49.15;98059.38;5097835;28;20032;-78
2020/12/29 00:59:12;;;;;;;1.42;0.80;;;;;;;17.15;49.29;98057.69;5068909;28;20031;-77
2020/12/29 01:01:38;;;;;;;0.98;0.73;;;;;;;17.19;49.27;98071.47;5111388;28;20034;-78
2020/12/29 01:04:03;;;;;;;1.50;1.10;;;;;;;17.18;49.52;98072.38;5108447;28;20027;-77
2020/12/29 01:06:29;;;;;;;1.30;1.00;;;;;;;17.17;49.37;98070.69;5092263;28;20066;-78
2020/12/29 01:08:55;;;;;;;1.17;0.85;;;;;;;17.16;49.34;98075.03;5094850;28;20028;-78
2020/12/29 01:11:20;;;;;;;1.50;0.90;;;;;;;17.14;49.10;98075.13;5101705;28;20036;-78
2020/12/29 01:13:46;;;;;;;0.85;0.70;;;;;;;17.13;49.04;98072.59;5077199;28;20031;-77
2020/12/29 01:16:12;;;;;;;1.58;1.02;;;;;;;17.12;49.22;98076.13;5073916;28;20032;-78
2020/12/29 01:18:40;;;;;;;1.35;1.00;;;;;;;17.12;48.98;98078.72;5094089;28;20039;-77
2020/12/29 01:21:11;;;;;;;1.13;1.00;;;;;;;17.13;49.25;98089.13;5081666;28;20036;-78
2020/12/29 01:23:36;;;;;;;1.17;0.82;;;;;;;17.12;48.99;98084.81;5102129;28;20474;-77
2020/12/29 01:26:02;;;;;;;1.45;1.10;;;;;;;17.11;49.00;98085.72;5076770;28;20039;-78
2020/12/29 01:28:27;;;;;;;1.98;1.10;;;;;;;17.11;48.79;98090.94;5075200;28;20032;-78
2020/12/29 01:30:53;;;;;;;1.13;0.90;;;;;;;17.11;49.13;98085.72;5069502;28;20054;-77
2020/12/29 01:33:18;;;;;;;1.25;0.70;;;;;;;17.09;49.39;98091.91;5105857;28;20505;-77
2020/12/29 01:35:44;;;;;;;1.35;0.93;;;;;;;17.09;49.29;98094.53;5064469;28;20071;-77
2020/12/29 01:38:09;;;;;;;1.20;0.80;;;;;;;17.11;49.23;98100.53;5088490;28;20082;-78
2020/12/29 01:40:35;;;;;;;1.10;0.70;;;;;;;17.09;49.15;98097.97;5112308;28;20024;-77
2020/12/29 01:43:02;;;;;;;1.50;1.33;;;;;;;17.07;49.45;98102.41;5091409;28;20024;-77
2020/12/29 01:45:27;;;;;;;1.40;1.00;;;;;;;17.10;49.08;98106.66;5095870;28;20036;-77
2020/12/29 01:47:53;;;;;;;1.55;1.00;;;;;;;17.09;49.32;98105.81;5076732;28;20034;-77
2020/12/29 01:50:21;;;;;;;1.33;0.98;;;;;;;17.07;49.02;98110.25;5112840;28;20485;-78
2020/12/29 01:52:54;;;;;;;2.25;1.55;;;;;;;17.09;48.99;98118.00;5079068;28;20043;-78
2020/12/29 01:55:20;;;;;;;1.80;1.20;;;;;;;17.07;49.08;98112.00;5080999;28;20028;-78
2020/12/29 01:57:45;;;;;;;2.17;1.65;;;;;;;17.07;49.32;98119.84;5087947;28;20023;-77
2020/12/29 02:00:12;;;;;;;1.75;1.40;;;;;;;17.06;49.22;98123.38;5090583;28;20019;-77
2020/12/29 02:02:37;;;;;;;1.40;0.90;;;;;;;17.06;48.87;98125.97;5112642;28;20038;-77
2020/12/29 02:05:04;;;;;;;2.25;1.10;;;;;;;17.06;48.93;98126.81;5093177;28;20031;-77
2020/12/29 02:07:30;;;;;;;1.45;1.00;;;;;;;17.05;48.83;98122.50;5085472;28;20024;-77
2020/12/29 02:09:55;;;;;;;1.73;1.13;;;;;;;17.05;49.34;98130.34;5095910;28;20429;-77
2020/12/29 02:12:28;;;;;;;1.73;0.95;;;;;;;17.06;49.15;98131.19;5087700;28;20027;-77
2020/12/29 02:14:54;;;;;;;1.90;1.13;;;;;;;17.06;49.35;98125.97;5085845;28;20122;-77
2020/12/29 02:17:20;;;;;;;1.42;1.30;;;;;;;17.02;48.96;98132.22;5083208;28;20521;-77
2020/12/29 02:19:45;;;;;;;2.05;1.35;;;;;;;17.03;49.22;98126.09;5095621;28;20034;-77
2020/12/29 02:22:15;;;;;;;1.40;0.95;;;;;;;17.04;49.23;98133.00;5078090;28;20385;-77
2020/12/29 02:24:41;;;;;;;1.25;0.95;;;;;;;17.01;49.09;98135.75;5093740;28;20020;-78
2020/12/29 02:27:06;;;;;;;2.22;1.40;;;;;;;17.01;48.99;98130.53;5097768;28;20035;-78
2020/12/29 02:29:32;;;;;;;2.03;0.85;;;;;;;17.02;48.97;98135.69;5074858;28;20029;-78
2020/12/29 02:31:58;;;;;;;1.25;0.95;;;;;;;17.13;48.74;98136.13;5107169;28;20100;-77
2020/12/29 02:34:23;;;;;;;1.88;1.30;;;;;;;17.26;48.56;98131.22;5113530;28;20126;-77
2020/12/29 02:36:49;;;;;;;1.38;1.02;;;;;;;17.29;48.57;98135.44;5080011;28;20027;-78
2020/12/29 02:39:14;;;;;;;1.20;0.90;;;;;;;17.29;48.86;98140.66;5115738;28;20027;-77
2020/12/29 02:41:40;;;;;;;1.17;0.93;;;;;;;17.36;48.59;98144.72;5095505;28;20024;-78
2020/12/29 02:44:05;;;;;;;1.42;1.00;;;;;;;17.44;48.32;98140.84;5081811;28;20543;-78
2020/12/29 02:46:31;;;;;;;2.15;1.02;;;;;;;17.44;48.17;98143.47;5095682;28;20085;-78
2020/12/29 02:48:56;;;;;;;1.80;0.98;;;;;;;17.40;48.61;98147.13;5082083;28;20055;-78
2020/12/29 02:51:21;;;;;;;1.48;1.10;;;;;;;17.50;48.20;98153.66;5098255;28;20032;-78
2020/12/29 02:53:46;;;;;;;1.33;0.90;;;;;;;17.56;48.25;98146.47;5098040;28;20039;-78
2020/12/29 02:56:18;;;;;;;1.38;1.10;;;;;;;17.52;48.05;98155.38;5110473;28;20031;-77
2020/12/29 02:58:43;;;;;;;1.88;1.00;;;;;;;17.50;48.59;98163.25;5089387;28;20036;-78
2020/12/29 03:01:09;;;;;;;1.90;1.33;;;;;;;17.57;48.23;98162.06;5114831;28;20034;-78
2020/12/29 03:03:34;;;;;;;1.52;1.00;;;;;;;17.64;48.42;98162.69;5098317;28;20427;-78
2020/12/29 03:05:59;;;;;;;1.75;1.10;;;;;;;17.58;48.63;98166.38;5085394;28;20047;-78
2020/12/29 03:08:25;;;;;;;1.35;0.98;;;;;;;17.54;48.41;98161.34;5098484;28;20055;-78
2020/12/29 03:10:50;;;;;;;1.95;1.10;;;;;;;17.64;48.36;98160.94;5081137;28;20065;-77
2020/12/29 03:13:15;;;;;;;1.25;0.90;;;;;;;17.65;48.24;98170.47;5097935;28;20499;-78
2020/12/29 03:15:41;;;;;;;0.95;0.65;;;;;;;17.61;48.47;98173.25;5085637;28;20028;-77
2020/12/29 03:18:06;;;;;;;1.17;0.77;;;;;;;17.63;48.36;98179.25;5080935;28;20035;-77
2020/12/29 03:20:31;;;;;;;1.25;1.00;;;;;;;17.71;48.45;98180.66;5079640;28;20055;-77
2020/12/29 03:22:57;;;;;;;1.23;0.98;;;;;;;17.67;48.27;98183.44;5099851;28;20098;-78
2020/12/29 03:25:22;;;;;;;1.25;0.95;;;;;;;17.61;48.51;98186.31;5088399;28;20027;-78
2020/12/29 03:27:47;;;;;;;1.08;0.70;;;;;;;17.71;48.48;98185.03;5060563;28;20032;-77
2020/12/29 03:30:13;;;;;;;1.02;0.70;;;;;;;17.73;48.10;98183.19;5114870;28;20028;-77
2020/12/29 03:32:38;;;;;;;1.00;0.80;;;;;;;17.69;48.28;98187.69;5097568;28;20059;-78
2020/12/29 03:35:03;;;;;;;0.93;0.70;;;;;;;17.65;48.45;98190.53;5061139;28;20039;-78
2020/12/29 03:37:29;;;;;;;1.73;1.10;;;;;;;17.75;48.15;98191.81;5077562;28;20027;-77
2020/12/29 03:39:54;;;;;;;1.17;0.82;;;;;;;17.73;48.44;98196.25;5095373;28;20383;-77
2020/12/29 03:42:19;;;;;;;1.17;1.00;;;;;;;17.68;48.38;98196.47;5061200;28;20024;-77
2020/12/29 03:44:45;;;;;;;1.50;0.82;;;;;;;17.62;48.54;98198.47;5112885;28;20378;-77
2020/12/29 03:47:10;;;;;;;1.27;0.90;;;;;;;17.60;48.34;98201.16;5080694;28;20500;-78
2020/12/29 03:49:35;;;;;;;1.40;0.85;;;;;;;17.53;48.80;98198.88;5114711;28;20063;-77
2020/12/29 03:52:01;;;;;;;1.60;1.05;;;;;;;17.50;48.75;98200.69;5115411;28;20055;-78
2020/12/29 03:54:26;;;;;;;1.67;0.90;;;;;;;17.45;48.82;98194.81;5095277;28;20031;-70
2020/12/29 03:56:51;;;;;;;1.15;0.93;;;;;;;17.40;48.78;98194.13;5090662;28;20036;-70
2020/12/29 03:59:17;;;;;;;1.15;0.80;;;;;;;17.41;49.11;98208.91;5080206;28;20548;-70
2020/12/29 04:01:42;;;;;;;1.48;0.80;;;;;;;17.41;49.00;98206.28;5083694;28;20043;-70
2020/12/29 04:04:08;;;;;;;0.80;0.70;;;;;;;17.41;48.72;98213.28;5092739;28;20457;-70
2020/12/29 04:06:33;;;;;;;1.45;0.80;;;;;;;17.38;49.03;98219.50;5091738;28;20032;-70
2020/12/29 04:08:59;;;;;;;1.08;0.88;;;;;;;17.36;49.14;98217.88;5092331;28;20035;-70
2020/12/29 04:11:24;;;;;;;1.52;0.80;;;;;;;17.33;48.92;98218.84;5086943;28;20114;-70
2020/12/29 04:13:50;;;;;;;1.42;1.10;;;;;;;17.35;48.88;98230.06;5079002;28;20072;-70
2020/12/29 04:16:15;;;;;;;0.93;0.70;;;;;;;17.34;49.10;98225.75;5084525;28;20032;-70
2020/12/29 04:18:41;;;;;;;0.90;0.77;;;;;;;17.25;48.94;98218.31;5081215;28;20034;-70
2020/12/29 04:21:06;;;;;;;1.50;0.90;;;;;;;17.24;49.01;98216.63;5074766;28;20027;-70
2020/12/29 04:23:32;;;;;;;1.45;0.85;;;;;;;17.27;49.09;98229.53;5088794;28;20024;-70
2020/12/29 04:25:58;;;;;;;1.35;0.80;;;;;;;17.28;49.14;98236.44;5100568;28;20486;-70
2020/12/29 04:28:24;;;;;;;1.05;0.90;;;;;;;17.29;48.95;98245.97;5112788;28;20032;-77
2020/12/29 04:30:49;;;;;;;0.98;0.80;;;;;;;17.27;48.95;98245.19;5096534;28;20972;-77
2020/12/29 04:33:15;;;;;;;2.00;0.70;;;;;;;17.24;48.94;98245.34;5114697;28;20513;-77
2020/12/29 04:35:40;;;;;;;0.80;0.80;;;;;;;17.25;49.35;98252.28;5096350;28;20024;-77
2020/12/29 04:38:05;;;;;;;0.98;0.70;;;;;;;17.22;49.18;98249.78;5096407;28;20102;-78
2020/12/29 04:40:31;;;;;;;1.02;0.88;;;;;;;17.21;49.40;98248.06;5114930;28;20066;-78
2020/12/29 04:42:57;;;;;;;1.27;0.80;;;;;;;17.23;48.69;98253.25;5114361;28;20026;-77
2020/12/29 04:45:23;;;;;;;0.73;0.70;;;;;;;17.20;49.21;98258.56;5096564;28;20028;-78
2020/12/29 04:47:50;;;;;;;0.82;0.82;;;;;;;17.21;48.86;98268.97;5095955;28;20028;-77
2020/12/29 04:50:17;;;;;;;1.45;0.75;;;;;;;17.20;49.05;98263.81;5087621;28;20028;-77
2020/12/29 04:52:44;;;;;;;0.73;0.65;;;;;;;17.19;48.87;98260.34;5114283;28;20034;-77
2020/12/29 04:55:10;;;;;;;1.05;0.70;;;;;;;17.18;49.05;98263.84;5108466;28;20034;-77
2020/12/29 04:57:35;;;;;;;1.00;0.73;;;;;;;17.18;49.12;98271.69;5079041;28;20028;-77
2020/12/29 05:00:05;;;;;;;1.95;1.02;;;;;;;17.18;49.09;98273.44;5057830;28;20051;-77
2020/12/29 05:02:30;;;;;;;0.70;0.60;;;;;;;17.15;49.10;98277.88;5107953;28;20051;-78
2020/12/29 05:04:55;;;;;;;1.35;0.90;;;;;;;17.15;49.01;98277.88;5078187;28;20152;-78
2020/12/29 05:07:21;;;;;;;0.90;0.75;;;;;;;17.17;48.95;98287.41;5095320;28;20114;-78
2020/12/29 05:09:46;;;;;;;0.80;0.70;;;;;;;17.18;49.48;98296.97;5107558;28;20015;-78
2020/12/29 05:12:15;;;;;;;0.60;0.60;;;;;;;17.15;48.83;98298.78;5096124;28;20389;-78
2020/12/29 05:14:44;;;;;;;1.00;0.77;;;;;;;17.14;49.03;98297.06;5113637;28;20031;-77
2020/12/29 05:17:09;;;;;;;0.82;0.70;;;;;;;17.15;49.30;98292.69;5110228;28;20023;-70
2020/12/29 05:19:36;;;;;;;1.02;0.73;;;;;;;17.15;48.93;98303.16;5100476;28;20057;-70
2020/12/29 05:22:02;;;;;;;1.02;0.80;;;;;;;17.11;49.17;98298.97;5114425;28;20072;-70
2020/12/29 05:24:27;;;;;;;0.50;0.43;;;;;;;17.10;48.97;98302.50;5094672;28;20050;-70
2020/12/29 05:26:56;;;;;;;1.27;0.80;;;;;;;17.12;48.84;98308.50;5074555;28;20478;-70
2020/12/29 05:29:24;;;;;;;0.88;0.70;;;;;;;17.10;49.14;98305.09;5101257;28;20420;-70
2020/12/29 05:31:50;;;;;;;1.52;0.90;;;;;;;17.12;48.58;98311.13;5092346;28;20065;-70
2020/12/29 05:34:27;;;;;;;1.23;0.90;;;;;;;17.11;48.96;98309.41;5092423;28;20038;-70
2020/12/29 05:36:55;;;;;;;1.02;0.80;;;;;;;17.11;48.84;98318.09;5112843;28;20099;-70
2020/12/29 05:39:23;;;;;;;1.00;0.90;;;;;;;17.09;48.93;98316.47;5082656;28;20171;-70
2020/12/29 05:41:54;;;;;;;0.70;0.60;;;;;;;17.11;49.01;98317.25;5087697;28;20031;-70
2020/12/29 05:44:28;;;;;;;0.75;0.60;;;;;;;17.07;49.05;98313.06;5090318;28;20082;-70
2020/12/29 05:46:54;;;;;;;1.42;1.00;;;;;;;17.09;48.98;98317.31;5111964;28;20046;-71
2020/12/29 05:49:20;;;;;;;1.00;0.68;;;;;;;17.09;48.90;98319.06;5078624;28;20031;-70
2020/12/29 05:51:47;;;;;;;1.08;0.80;;;;;;;17.08;49.34;98315.59;5104200;28;20032;-70
2020/12/29 05:54:14;;;;;;;1.80;0.82;;;;;;;17.07;49.18;98326.97;5111742;28;20055;-70
2020/12/29 05:56:41;;;;;;;1.02;0.80;;;;;;;17.07;48.74;98323.50;5077105;28;20035;-71
2020/12/29 05:59:06;;;;;;;1.20;0.85;;;;;;;17.06;49.07;98324.41;5079632;28;20080;-70
2020/12/29 06:01:36;;;;;;;1.20;0.75;;;;;;;17.04;48.94;98326.22;5077109;28;20106;-70
2020/12/29 06:04:03;;;;;;;0.73;0.70;;;;;;;17.07;48.94;98328.72;5105663;28;20024;-70
2020/12/29 06:06:31;;;;;;;0.50;0.50;;;;;;;17.06;48.75;98333.09;5112506;28;20023;-70
2020/12/29 06:09:01;;;;;;;1.33;0.90;;;;;;;17.05;48.80;98340.97;5093450;28;20042;-70
2020/12/29 06:11:35;;;;;;;0.85;0.70;;;;;;;17.05;48.99;98341.84;5106196;28;20031;-70
2020/12/29 06:14:01;;;;;;;0.60;0.50;;;;;;;17.04;48.92;98339.28;5092044;28;20111;-70
2020/12/29 06:16:32;;;;;;;0.70;0.50;;;;;;;17.05;48.83;98346.19;5081058;28;20103;-70
2020/12/29 06:19:01;;;;;;;0.65;0.65;;;;;;;17.02;48.72;98341.94;5112460;28;20035;-70
2020/12/29 06:21:29;;;;;;;1.08;0.85;;;;;;;17.02;48.92;98343.69;5109026;28;20034;-70
2020/12/29 06:23:57;;;;;;;0.68;0.65;;;;;;;17.00;48.82;98343.78;5081735;28;20028;-71
2020/12/29 06:26:33;;;;;;;1.02;0.60;;;;;;;17.01;48.82;98348.06;5104589;28;20403;-70
2020/12/29 06:29:02;;;;;;;0.82;0.65;;;;;;;17.03;48.82;98356.69;5093261;28;20471;-70
2020/12/29 06:31:28;;;;;;;0.85;0.60;;;;;;;17.04;49.24;98362.78;5106787;28;20103;-70
2020/12/29 06:33:56;;;;;;;1.05;0.60;;;;;;;17.15;48.54;98368.44;5091754;28;21664;-70
2020/12/29 06:36:25;;;;;;;0.98;0.52;;;;;;;17.28;48.80;98360.97;5099093;28;20020;-70
2020/12/29 06:38:51;;;;;;;1.00;0.77;;;;;;;17.29;48.44;98368.75;5101404;28;20046;-70
2020/12/29 06:41:20;;;;;;;0.90;0.70;;;;;;;17.25;48.62;98363.72;5099144;28;20030;-70
2020/12/29 06:43:47;;;;;;;0.77;0.55;;;;;;;17.39;48.33;98375.34;5069558;28;20020;-70
2020/12/29 06:46:14;;;;;;;1.17;0.63;;;;;;;17.43;48.42;98371.66;5072544;28;20031;-70
2020/12/29 06:48:41;;;;;;;1.23;0.80;;;;;;;17.41;48.30;98375.25;5095827;28;20027;-70
2020/12/29 06:51:10;;;;;;;0.75;0.52;;;;;;;17.43;48.28;98386.50;5091161;28;20042;-70
2020/12/29 06:53:38;;;;;;;1.33;1.00;;;;;;;17.51;48.20;98387.06;5115185;28;20024;-70
2020/12/29 06:56:04;;;;;;;0.95;0.63;;;;;;;17.58;48.30;98390.25;5086226;28;20061;-78
2020/12/29 06:58:33;;;;;;;0.90;0.52;;;;;;;17.52;48.27;98387.91;5071738;28;20035;-78
2020/12/29 07:01:22;;;;;;;0.65;0.43;;;;;;;17.52;47.98;98393.13;5100387;28;20062;-78
2020/12/29 07:04:00;;;;;;;0.63;0.50;;;;;;;17.61;48.07;98401.44;5096452;28;20016;-78
2020/12/29 07:06:30;;;;;;;1.17;0.65;;;;;;;17.60;48.22;98401.50;5102856;28;20442;-78
2020/12/29 07:09:07;;;;;;;0.65;0.52;;;;;;;17.54;48.19;98413.03;5112608;28;20023;-78
2020/12/29 07:11:34;;;;;;;0.65;0.50;;;;;;;17.61;48.41;98413.66;5091944;28;20038;-78
2020/12/29 07:14:03;;;;;;;1.17;0.82;;;;;;;17.67;48.04;98422.13;5096164;28;20023;-78
2020/12/29 07:16:28;;;;;;;1.50;0.70;;;;;;;17.63;47.98;98417.97;5116513;28;20023;-76
2020/12/29 07:19:08;;;;;;;1.00;0.70;;;;;;;17.59;48.26;98424.19;5115693;28;20036;-78
2020/12/29 07:21:33;;;;;;;0.90;0.60;;;;;;;17.67;48.41;98426.50;5082021;28;20046;-77
2020/12/29 07:24:04;;;;;;;0.32;0.32;;;;;;;17.65;48.38;98425.75;5090942;28;20027;-78
2020/12/29 07:26:30;;;;;;;0.73;0.52;;;;;;;17.63;48.29;98428.41;5098291;28;20020;-78
2020/12/29 07:28:56;;;;;;;0.52;0.40;;;;;;;17.67;48.34;98432.59;5096055;28;20024;-77
2020/12/29 07:31:22;;;;;;;1.08;0.70;;;;;;;17.71;48.26;98435.94;5094299;28;20040;-78
2020/12/29 07:33:55;;;;;;;0.93;0.60;;;;;;;17.69;48.02;98450.81;5079886;28;20085;-77
2020/12/29 07:36:21;;;;;;;0.60;0.50;;;;;;;17.63;48.44;98448.44;5096982;28;20072;-78
2020/12/29 07:38:48;;;;;;;0.80;0.43;;;;;;;17.70;48.14;98450.78;5097481;28;20039;-77
2020/12/29 07:41:15;;;;;;;1.05;0.68;;;;;;;17.71;48.08;98452.47;5098614;28;20493;-76
2020/12/29 07:43:41;;;;;;;1.35;0.60;;;;;;;17.68;48.23;98459.56;5115149;28;20031;-77
2020/12/29 07:46:06;;;;;;;0.60;0.50;;;;;;;17.68;48.59;98470.88;5113323;28;20027;-78
2020/12/29 07:48:32;;;;;;;0.75;0.50;;;;;;;17.79;48.02;98473.06;5115644;28;20044;-78
2020/12/29 07:51:00;;;;;;;0.70;0.60;;;;;;;17.74;48.00;98473.28;5115014;28;20043;-78
2020/12/29 07:53:26;;;;;;;1.00;0.50;;;;;;;17.70;48.50;98481.28;5088147;28;20036;-77
2020/12/29 07:55:52;;;;;;;0.32;0.32;;;;;;;17.76;48.17;98481.91;5102420;28;20493;-77
2020/12/29 07:58:18;;;;;;;1.35;1.25;;;;;;;17.76;48.03;98488.91;5091376;28;20401;-77
2020/12/29 08:00:44;;;;;;;1.15;0.68;;;;;;;17.73;48.05;98494.25;5103126;28;20032;-77
2020/12/29 08:03:09;;;;;;;0.65;0.50;;;;;;;17.64;48.39;98499.84;5085470;28;20026;-78
2020/12/29 08:05:35;;;;;;;0.75;0.50;;;;;;;17.61;48.47;98507.75;5093090;28;20028;-78
2020/12/29 08:08:09;;;;;;;0.65;0.50;;;;;;;17.55;48.34;98519.28;5097526;28;20019;-71
2020/12/29 08:10:35;;;;;;;0.88;0.50;;;;;;;17.50;48.47;98516.00;5103518;28;20027;-70
2020/12/29 08:13:03;;;;;;;0.70;0.32;;;;;;;17.51;48.58;98522.94;5095903;28;20031;-77
2020/12/29 08:15:34;;;;;;;0.75;0.57;;;;;;;17.47;48.83;98535.25;5092106;28;20028;-70
2020/12/29 08:18:04;;;;;;;0.63;0.43;;;;;;;17.45;48.55;98533.59;5088531;28;20036;-70
2020/12/29 08:20:30;;;;;;;1.02;0.57;;;;;;;17.42;48.60;98533.72;5109484;28;20024;-70
2020/12/29 08:22:58;;;;;;;0.93;0.50;;;;;;;17.42;48.65;98542.41;5091578;28;20456;-70
2020/12/29 08:25:24;;;;;;;1.15;0.57;;;;;;;17.39;48.96;98552.13;5095733;28;20024;-70
2020/12/29 08:27:50;;;;;;;1.05;0.95;;;;;;;17.35;49.02;98553.16;5092906;28;20093;-70
2020/12/29 08:30:15;;;;;;;0.60;0.60;;;;;;;17.38;48.94;98556.50;5111020;28;20358;-70
2020/12/29 08:32:41;;;;;;;1.10;0.68;;;;;;;17.35;48.90;98559.22;5098662;28;20502;-77
2020/12/29 08:35:12;;;;;;;0.40;0.40;;;;;;;17.35;48.88;98559.22;5058884;28;20137;-78
2020/12/29 08:37:56;;;;;;;0.38;0.30;;;;;;;17.33;48.76;98563.66;5082360;28;20030;-78
2020/12/29 08:40:22;;;;;;;;;;;;;;;17.34;48.82;98570.56;5112184;28;20027;-78
2020/12/29 08:42:49;;;;;;;1.00;0.52;;;;;;;17.34;48.99;98580.16;5089115;28;19908;-78
2020/12/29 08:45:15;;;;;;;1.15;0.75;;;;;;;17.30;49.08;98579.41;5112756;28;20414;-78
2020/12/29 08:47:45;;;;;;;0.95;0.57;;;;;;;17.30;48.94;98576.81;5079437;28;20122;-78
2020/12/29 08:50:31;;;;;;;0.65;0.30;;;;;;;17.29;49.18;98575.09;5096397;28;20027;-77
2020/12/29 08:53:23;;;;;;;0.80;0.52;;;;;;;17.29;48.92;98582.94;5113035;28;20024;-78
2020/12/29 08:55:48;;;;;;;0.60;0.50;;;;;;;17.29;48.71;98592.53;5086642;28;20040;-78
2020/12/29 08:58:14;;;;;;;0.85;0.55;;;;;;;17.28;48.49;98591.69;5086497;28;20512;-70
2020/12/29 09:00:44;;;;;;;0.47;0.40;;;;;;;17.25;49.10;98594.41;5113614;28;20063;-78
2020/12/29 09:03:25;;;;;;;0.68;0.40;;;;;;;17.24;48.91;98597.94;5086255;28;20103;-77
2020/12/29 09:05:53;;;;;;;0.55;0.40;;;;;;;17.27;48.68;98602.19;5103929;28;20126;-70
2020/12/29 09:08:28;;;;;;;1.00;0.73;;;;;;;17.26;48.48;98603.97;5093886;28;20032;-77
2020/12/29 09:11:09;;;;;;;0.98;0.82;;;;;;;17.25;49.00;98607.47;5100126;28;20023;-77
2020/12/29 09:13:35;;;;;;;0.80;0.40;;;;;;;17.21;48.85;98605.03;5075594;28;20020;-77
2020/12/29 09:16:13;;;;;;;0.95;0.70;;;;;;;17.23;48.91;98609.28;5095624;28;20031;-78
2020/12/29 09:18:39;;;;;;;0.82;0.55;;;;;;;17.19;48.79;98609.44;5112693;28;20036;-78
2020/12/29 09:21:25;;;;;;;1.02;0.57;;;;;;;17.22;48.64;98617.19;5079142;28;20023;-77
2020/12/29 09:24:02;;;;;;;0.60;0.50;;;;;;;17.19;48.80;98618.13;5105766;28;20022;-78
2020/12/29 09:26:28;;;;;;;1.08;0.60;;;;;;;17.20;48.87;98624.22;5096163;28;20027;-77
2020/12/29 09:28:53;;;;;;;0.93;0.55;;;;;;;17.18;49.15;98623.41;5083520;28;20020;-78
2020/12/29 09:31:27;;;;;;;0.70;0.50;;;;;;;17.20;48.98;98630.28;5098302;28;20031;-78
2020/12/29 09:33:52;;;;;;;0.55;0.55;;;;;;;17.18;48.64;98634.69;5095948;28;20044;-78
2020/12/29 09:36:23;;;;;;;1.38;0.60;;;;;;;17.17;48.75;98637.38;5101811;28;20031;-70
2020/12/29 09:38:51;;;;;;;1.60;0.88;;;;;;;17.17;48.67;98629.53;5107600;28;20381;-77
2020/12/29 09:41:16;;;;;;;0.60;0.45;;;;;;;17.15;48.70;98640.88;5078155;28;20028;-78
2020/12/29 09:43:45;;;;;;;0.85;0.65;;;;;;;17.16;48.62;98644.34;5100944;28;20034;-78
2020/12/29 09:46:11;;;;;;;0.82;0.60;;;;;;;17.15;48.99;98646.09;5094505;28;20108;-77
2020/12/29 09:48:37;;;;;;;0.90;0.60;;;;;;;17.17;48.88;98651.28;5081535;28;20097;-78
2020/12/29 09:51:03;;;;;;;1.35;0.68;;;;;;;17.18;48.67;98663.44;5095318;28;20035;-77
2020/12/29 09:53:28;;;;;;;0.68;0.43;;;;;;;17.16;48.72;98662.63;5094840;28;20035;-77
2020/12/29 09:55:57;;;;;;;0.63;0.57;;;;;;;17.17;48.53;98674.78;5061662;28;20031;-77
2020/12/29 09:58:23;;;;;;;0.85;0.60;;;;;;;17.16;49.01;98680.91;5058845;28;20024;-78
2020/12/29 10:00:50;;;;;;;0.82;0.60;;;;;;;17.14;48.77;98690.53;5108562;28;22074;-77
2020/12/29 10:03:15;;;;;;;1.23;0.88;;;;;;;17.17;48.75;98685.22;5106660;28;20020;-78
2020/12/29 10:05:41;;;;;;;0.47;0.47;;;;;;;17.14;48.71;98691.41;5103836;28;20021;-78
2020/12/29 10:08:07;;;;;;;0.95;0.70;;;;;;;17.12;48.97;98687.16;5093788;28;20020;-78
2020/12/29 10:10:32;;;;;;;1.10;0.55;;;;;;;17.15;48.62;98700.94;5060181;28;20066;-78
2020/12/29 10:12:57;;;;;;;1.08;0.63;;;;;;;17.14;48.51;98691.41;5111398;28;20051;-77
2020/12/29 10:15:23;;;;;;;1.02;0.70;;;;;;;17.14;48.85;98696.63;5095539;28;20050;-78
2020/12/29 10:17:48;;;;;;;0.90;0.77;;;;;;;17.16;48.92;98704.41;5074580;28;20084;-77
2020/12/29 10:20:14;;;;;;;0.95;0.50;;;;;;;17.16;48.90;98696.56;5080616;28;20028;-77
2020/12/29 10:22:39;;;;;;;1.02;0.70;;;;;;;17.15;48.91;98700.09;5103348;28;20032;-78
2020/12/29 10:25:05;;;;;;;1.20;0.77;;;;;;;17.16;48.73;98696.56;5106383;28;20149;-77
2020/12/29 10:27:31;;;;;;;1.17;0.65;;;;;;;17.12;48.89;98701.06;5080048;28;20036;-77
2020/12/29 10:29:56;;;;;;;1.17;0.70;;;;;;;17.12;48.70;98708.06;5086918;28;20486;-77
2020/12/29 10:32:21;;;;;;;2.65;0.73;;;;;;;17.11;48.91;98707.19;5091987;28;20060;-77
2020/12/29 10:34:47;;;;;;;0.80;0.50;;;;;;;17.14;48.70;98708.81;5110783;28;20150;-70
2020/12/29 10:37:13;;;;;;;0.90;0.60;;;;;;;17.17;48.85;98710.50;5107508;28;20088;-70
2020/12/29 10:39:38;;;;;;;2.03;0.98;;;;;;;17.16;48.79;98709.63;5065740;28;20028;-69
2020/12/29 10:42:07;;;;;;;1.00;0.73;;;;;;;17.18;48.71;98712.19;5100991;28;20074;-70
2020/12/29 10:44:32;;;;;;;0.70;0.50;;;;;;;17.12;48.88;98706.28;5088177;28;20024;-70
2020/12/29 10:46:57;;;;;;;1.15;0.80;;;;;;;17.17;48.54;98713.97;5109583;28;20030;-70
2020/12/29 10:49:23;;;;;;;1.08;0.70;;;;;;;17.18;48.59;98723.50;5110581;28;20047;-70
2020/12/29 10:51:49;;;;;;;1.00;0.47;;;;;;;17.14;48.53;98714.91;5089169;28;20118;-70
2020/12/29 10:54:14;;;;;;;1.02;0.80;;;;;;;17.12;48.47;98706.28;5089087;28;20425;-70
2020/12/29 10:56:40;;;;;;;0.68;0.60;;;;;;;17.12;48.63;98724.56;5110481;28;20119;-70
2020/12/29 10:59:05;;;;;;;1.13;0.80;;;;;;;17.09;48.72;98721.19;5079094;28;20035;-70
2020/12/29 11:01:30;;;;;;;0.98;0.68;;;;;;;17.12;48.95;98732.41;5081130;28;20024;-70
2020/12/29 11:03:56;;;;;;;1.42;0.70;;;;;;;17.16;48.72;98746.19;5090141;28;20024;-70
2020/12/29 11:06:22;;;;;;;0.95;0.70;;;;;;;17.13;48.64;98738.50;5078750;28;20027;-70
2020/12/29 11:08:48;;;;;;;0.93;0.70;;;;;;;17.15;48.99;98747.97;5095643;28;20118;-70
2020/12/29 11:11:15;;;;;;;1.10;0.70;;;;;;;17.11;48.90;98748.97;5116634;28;20050;-70
2020/12/29 11:13:41;;;;;;;1.27;0.77;;;;;;;17.12;48.85;98753.31;5088388;28;20524;-70
2020/12/29 11:16:13;;;;;;;1.20;0.60;;;;;;;17.12;49.08;98753.31;5110673;28;20413;-70
2020/12/29 11:18:38;;;;;;;1.10;0.77;;;;;;;17.11;48.83;98750.75;5103921;28;20054;-70
2020/12/29 11:21:03;;;;;;;1.02;0.68;;;;;;;17.08;48.94;98756.91;5081394;28;20066;-70
2020/12/29 11:23:29;;;;;;;1.00;0.50;;;;;;;17.09;48.73;98763.84;5113140;28;20016;-70
2020/12/29 11:25:57;;;;;;;0.77;0.75;;;;;;;17.09;48.84;98763.84;5095223;28;20481;-70
2020/12/29 11:28:23;;;;;;;0.55;0.50;;;;;;;17.09;48.79;98763.84;5094196;28;20047;-69
2020/12/29 11:30:48;;;;;;;1.35;0.80;;;;;;;17.10;48.85;98765.56;5089211;28;20024;-70
2020/12/29 11:33:13;;;;;;;0.40;0.40;;;;;;;17.10;48.73;98767.31;5068992;28;20044;-70